Terminal Aerodrome Forecast
Issued by NWS

Home | Current Version | Previous Version | Text Only | Print | Product List | Glossary On
Versions: 1 2 3 4 5 6 7 8 9 10 11 12 13 14 15 16 17 18 19 20 21 22 23 24
883
FTUS43 KABR 220707 AAD
TAFMBG
TAF AMD
KMBG 220707Z 2207/2306 32006KT P6SM SKC
      TEMPO 2207/2211 5SM BR SCT010
     FM221500 30009KT P6SM BKN015
     FM230100 31006KT P6SM SCT250=

USA.gov is the U.S. government's official web portal to all federal, state and local government web resources and services.